sensor_id;sensor_type;location;lat;lon;timestamp;pressure;altitude;pressure_sealevel;temperature;humidity
20942;BME280;10630;53.734;10.282;2022-11-13T00:00:05;102655.81;;;11.32;nan
20942;BME280;10630;53.734;10.282;2022-11-13T00:02:33;102656.06;;;11.29;nan
20942;BME280;10630;53.734;10.282;2022-11-13T00:04:59;102651.53;;;11.52;nan
20942;BME280;10630;53.734;10.282;2022-11-13T00:07:26;102654.00;;;11.32;nan
20942;BME280;10630;53.734;10.282;2022-11-13T00:09:53;102645.53;;;11.27;nan
20942;BME280;10630;53.734;10.282;2022-11-13T00:12:20;102651.47;;;11.19;nan
20942;BME280;10630;53.734;10.282;2022-11-13T00:14:47;102647.84;;;11.20;nan
20942;BME280;10630;53.734;10.282;2022-11-13T00:17:14;102645.94;;;11.00;nan
20942;BME280;10630;53.734;10.282;2022-11-13T00:19:41;102644.03;;;10.79;nan
20942;BME280;10630;53.734;10.282;2022-11-13T00:22:08;102649.06;;;10.37;nan
20942;BME280;10630;53.734;10.282;2022-11-13T00:24:35;102641.19;;;10.47;nan
20942;BME280;10630;53.734;10.282;2022-11-13T00:27:02;102640.84;;;10.51;nan
20942;BME280;10630;53.734;10.282;2022-11-13T00:29:29;102640.91;;;10.27;nan
20942;BME280;10630;53.734;10.282;2022-11-13T00:31:56;102633.16;;;10.35;nan
20942;BME280;10630;53.734;10.282;2022-11-13T00:34:23;102639.28;;;10.49;nan
20942;BME280;10630;53.734;10.282;2022-11-13T00:37:12;102640.00;;;10.51;nan
20942;BME280;10630;53.734;10.282;2022-11-13T00:39:39;102637.75;;;10.22;nan
20942;BME280;10630;53.734;10.282;2022-11-13T00:42:05;102644.94;;;10.08;nan
20942;BME280;10630;53.734;10.282;2022-11-13T00:44:32;102632.13;;;10.38;nan
20942;BME280;10630;53.734;10.282;2022-11-13T00:46:58;102637.34;;;10.62;nan
20942;BME280;10630;53.734;10.282;2022-11-13T00:49:25;102639.91;;;10.64;nan
20942;BME280;10630;53.734;10.282;2022-11-13T00:51:52;102645.19;;;10.41;nan
20942;BME280;10630;53.734;10.282;2022-11-13T00:54:19;102650.59;;;10.28;nan
20942;BME280;10630;53.734;10.282;2022-11-13T00:56:47;102638.44;;;10.48;nan
20942;BME280;10630;53.734;10.282;2022-11-13T00:59:14;102642.41;;;10.42;nan
20942;BME280;10630;53.734;10.282;2022-11-13T01:01:41;102639.28;;;10.49;nan
20942;BME280;10630;53.734;10.282;2022-11-13T01:04:08;102640.22;;;10.48;nan
20942;BME280;10630;53.734;10.282;2022-11-13T01:06:35;102646.03;;;10.41;nan
20942;BME280;10630;53.734;10.282;2022-11-13T01:09:02;102640.00;;;10.62;nan
20942;BME280;10630;53.734;10.282;2022-11-13T01:11:30;102636.00;;;10.68;nan
20942;BME280;10630;53.734;10.282;2022-11-13T01:13:57;102635.91;;;10.81;nan
20942;BME280;10630;53.734;10.282;2022-11-13T01:16:26;102626.94;;;10.70;nan
20942;BME280;10630;53.734;10.282;2022-11-13T01:18:55;102630.09;;;10.75;nan
20942;BME280;10630;53.734;10.282;2022-11-13T01:21:24;102626.22;;;10.68;nan
20942;BME280;10630;53.734;10.282;2022-11-13T01:23:51;102619.88;;;10.92;nan
20942;BME280;10630;53.734;10.282;2022-11-13T01:26:20;102617.72;;;10.86;nan
20942;BME280;10630;53.734;10.282;2022-11-13T01:28:47;102612.75;;;10.81;nan
20942;BME280;10630;53.734;10.282;2022-11-13T01:31:15;102617.50;;;10.89;nan
20942;BME280;10630;53.734;10.282;2022-11-13T01:33:43;102622.94;;;10.76;nan
20942;BME280;10630;53.734;10.282;2022-11-13T01:36:12;102609.50;;;10.77;nan
20942;BME280;10630;53.734;10.282;2022-11-13T01:38:40;102613.84;;;11.01;nan
20942;BME280;10630;53.734;10.282;2022-11-13T01:41:08;102614.47;;;10.93;nan
20942;BME280;10630;53.734;10.282;2022-11-13T01:43:39;102611.94;;;10.58;nan
20942;BME280;10630;53.734;10.282;2022-11-13T01:48:49;102602.47;;;10.54;nan
20942;BME280;10630;53.734;10.282;2022-11-13T01:51:39;102605.63;;;10.59;nan
20942;BME280;10630;53.734;10.282;2022-11-13T01:54:06;102603.47;;;10.75;nan
20942;BME280;10630;53.734;10.282;2022-11-13T01:56:35;102601.88;;;10.96;nan
20942;BME280;10630;53.734;10.282;2022-11-13T02:01:32;102595.94;;;10.81;nan
20942;BME280;10630;53.734;10.282;2022-11-13T02:03:59;102595.44;;;10.98;nan
20942;BME280;10630;53.734;10.282;2022-11-13T02:06:27;102594.94;;;10.93;nan
20942;BME280;10630;53.734;10.282;2022-11-13T02:08:56;102589.66;;;10.82;nan
20942;BME280;10630;53.734;10.282;2022-11-13T02:11:23;102585.03;;;10.95;nan
20942;BME280;10630;53.734;10.282;2022-11-13T02:13:50;102586.94;;;10.93;nan
20942;BME280;10630;53.734;10.282;2022-11-13T02:16:18;102589.38;;;10.96;nan
20942;BME280;10630;53.734;10.282;2022-11-13T02:18:46;102580.00;;;11.24;nan
20942;BME280;10630;53.734;10.282;2022-11-13T02:26:30;102589.78;;;11.24;nan
20942;BME280;10630;53.734;10.282;2022-11-13T02:28:58;102584.22;;;11.27;nan
20942;BME280;10630;53.734;10.282;2022-11-13T02:31:25;102579.63;;;11.29;nan
20942;BME280;10630;53.734;10.282;2022-11-13T02:33:53;102582.00;;;11.32;nan
20942;BME280;10630;53.734;10.282;2022-11-13T02:36:20;102582.75;;;11.23;nan
20942;BME280;10630;53.734;10.282;2022-11-13T02:38:51;102570.44;;;11.22;nan
20942;BME280;10630;53.734;10.282;2022-11-13T02:41:18;102585.66;;;11.31;nan
20942;BME280;10630;53.734;10.282;2022-11-13T02:43:48;102572.03;;;11.13;nan
20942;BME280;10630;53.734;10.282;2022-11-13T02:46:15;102576.00;;;11.19;nan
20942;BME280;10630;53.734;10.282;2022-11-13T02:48:43;102581.50;;;11.38;nan
20942;BME280;10630;53.734;10.282;2022-11-13T02:51:10;102582.91;;;11.54;nan
20942;BME280;10630;53.734;10.282;2022-11-13T02:53:38;102582.22;;;11.40;nan
20942;BME280;10630;53.734;10.282;2022-11-13T02:56:05;102577.13;;;11.49;nan
20942;BME280;10630;53.734;10.282;2022-11-13T02:58:34;102578.56;;;11.74;nan
20942;BME280;10630;53.734;10.282;2022-11-13T03:01:01;102570.25;;;11.67;nan
20942;BME280;10630;53.734;10.282;2022-11-13T03:03:29;102563.47;;;11.63;nan
20942;BME280;10630;53.734;10.282;2022-11-13T03:06:15;102565.13;;;11.76;nan
20942;BME280;10630;53.734;10.282;2022-11-13T03:08:43;102569.88;;;11.72;nan
20942;BME280;10630;53.734;10.282;2022-11-13T03:11:11;102564.09;;;11.34;nan
20942;BME280;10630;53.734;10.282;2022-11-13T03:13:39;102564.97;;;11.56;nan
20942;BME280;10630;53.734;10.282;2022-11-13T03:16:07;102560.75;;;11.75;nan
20942;BME280;10630;53.734;10.282;2022-11-13T03:18:36;102564.84;;;11.79;nan
20942;BME280;10630;53.734;10.282;2022-11-13T03:21:06;102559.97;;;11.84;nan
20942;BME280;10630;53.734;10.282;2022-11-13T03:23:33;102557.56;;;11.81;nan
20942;BME280;10630;53.734;10.282;2022-11-13T03:26:08;102557.00;;;11.98;nan
20942;BME280;10630;53.734;10.282;2022-11-13T03:28:35;102551.69;;;11.87;nan
20942;BME280;10630;53.734;10.282;2022-11-13T03:31:02;102535.66;;;11.98;nan
20942;BME280;10630;53.734;10.282;2022-11-13T03:33:31;102539.31;;;11.97;nan
20942;BME280;10630;53.734;10.282;2022-11-13T03:35:58;102537.69;;;12.16;nan
20942;BME280;10630;53.734;10.282;2022-11-13T03:38:25;102538.56;;;11.95;nan
20942;BME280;10630;53.734;10.282;2022-11-13T03:40:53;102525.09;;;11.97;nan
20942;BME280;10630;53.734;10.282;2022-11-13T03:43:20;102526.91;;;11.96;nan
20942;BME280;10630;53.734;10.282;2022-11-13T03:45:47;102529.66;;;11.64;nan
20942;BME280;10630;53.734;10.282;2022-11-13T03:48:14;102533.94;;;11.55;nan
20942;BME280;10630;53.734;10.282;2022-11-13T03:50:44;102535.91;;;12.16;nan
20942;BME280;10630;53.734;10.282;2022-11-13T03:53:12;102525.66;;;12.22;nan
20942;BME280;10630;53.734;10.282;2022-11-13T03:55:39;102521.69;;;12.16;nan
20942;BME280;10630;53.734;10.282;2022-11-13T03:58:07;102521.38;;;12.09;nan
20942;BME280;10630;53.734;10.282;2022-11-13T04:00:34;102524.34;;;12.16;nan
20942;BME280;10630;53.734;10.282;2022-11-13T04:03:02;102522.91;;;12.33;nan
20942;BME280;10630;53.734;10.282;2022-11-13T04:05:30;102519.00;;;12.47;nan
20942;BME280;10630;53.734;10.282;2022-11-13T04:07:57;102518.44;;;12.53;nan
20942;BME280;10630;53.734;10.282;2022-11-13T04:10:27;102522.06;;;12.42;nan
20942;BME280;10630;53.734;10.282;2022-11-13T04:12:54;102520.34;;;12.31;nan
20942;BME280;10630;53.734;10.282;2022-11-13T04:15:23;102519.78;;;12.28;nan
20942;BME280;10630;53.734;10.282;2022-11-13T04:17:50;102527.53;;;11.88;nan
20942;BME280;10630;53.734;10.282;2022-11-13T04:20:17;102522.91;;;12.02;nan
20942;BME280;10630;53.734;10.282;2022-11-13T04:22:44;102520.47;;;11.99;nan
20942;BME280;10630;53.734;10.282;2022-11-13T04:25:11;102521.06;;;12.02;nan
20942;BME280;10630;53.734;10.282;2022-11-13T04:27:41;102522.56;;;12.16;nan
20942;BME280;10630;53.734;10.282;2022-11-13T04:30:10;102520.34;;;12.31;nan
20942;BME280;10630;53.734;10.282;2022-11-13T04:32:37;102516.88;;;12.10;nan
20942;BME280;10630;53.734;10.282;2022-11-13T04:35:03;102514.53;;;11.95;nan
20942;BME280;10630;53.734;10.282;2022-11-13T04:37:31;102517.56;;;12.02;nan
20942;BME280;10630;53.734;10.282;2022-11-13T04:39:58;102520.00;;;12.15;nan
20942;BME280;10630;53.734;10.282;2022-11-13T04:42:27;102508.34;;;12.16;nan
20942;BME280;10630;53.734;10.282;2022-11-13T04:45:22;102512.81;;;12.06;nan
20942;BME280;10630;53.734;10.282;2022-11-13T04:47:49;102521.00;;;12.14;nan
20942;BME280;10630;53.734;10.282;2022-11-13T04:50:17;102519.69;;;12.08;nan
20942;BME280;10630;53.734;10.282;2022-11-13T04:52:45;102521.53;;;11.86;nan
20942;BME280;10630;53.734;10.282;2022-11-13T04:55:12;102514.31;;;11.98;nan
20942;BME280;10630;53.734;10.282;2022-11-13T04:57:40;102518.06;;;11.75;nan
20942;BME280;10630;53.734;10.282;2022-11-13T05:00:07;102511.53;;;11.88;nan
20942;BME280;10630;53.734;10.282;2022-11-13T05:02:35;102507.28;;;11.97;nan
20942;BME280;10630;53.734;10.282;2022-11-13T05:05:02;102507.88;;;12.01;nan
20942;BME280;10630;53.734;10.282;2022-11-13T05:07:30;102508.34;;;12.16;nan
20942;BME280;10630;53.734;10.282;2022-11-13T05:09:59;102508.97;;;11.98;nan
20942;BME280;10630;53.734;10.282;2022-11-13T05:12:26;102507.50;;;12.15;nan
20942;BME280;10630;53.734;10.282;2022-11-13T05:14:53;102512.16;;;12.23;nan
20942;BME280;10630;53.734;10.282;2022-11-13T05:17:21;102501.47;;;12.23;nan
20942;BME280;10630;53.734;10.282;2022-11-13T05:19:49;102499.88;;;12.42;nan
20942;BME280;10630;53.734;10.282;2022-11-13T05:22:16;102500.84;;;12.41;nan
20942;BME280;10630;53.734;10.282;2022-11-13T05:24:43;102490.88;;;12.33;nan
20942;BME280;10630;53.734;10.282;2022-11-13T05:27:10;102490.72;;;12.34;nan
20942;BME280;10630;53.734;10.282;2022-11-13T05:29:42;102489.34;;;12.40;nan
20942;BME280;10630;53.734;10.282;2022-11-13T05:32:09;102495.66;;;12.39;nan
20942;BME280;10630;53.734;10.282;2022-11-13T05:34:36;102489.28;;;12.30;nan
20942;BME280;10630;53.734;10.282;2022-11-13T05:37:04;102487.47;;;12.31;nan
20942;BME280;10630;53.734;10.282;2022-11-13T05:39:31;102486.91;;;12.27;nan
20942;BME280;10630;53.734;10.282;2022-11-13T05:41:58;102492.03;;;12.50;nan
20942;BME280;10630;53.734;10.282;2022-11-13T05:44:26;102486.03;;;12.27;nan
20942;BME280;10630;53.734;10.282;2022-11-13T05:46:53;102484.94;;;12.29;nan
20942;BME280;10630;53.734;10.282;2022-11-13T05:49:20;102480.47;;;12.40;nan
20942;BME280;10630;53.734;10.282;2022-11-13T05:51:46;102482.13;;;12.31;nan
20942;BME280;10630;53.734;10.282;2022-11-13T05:54:14;102474.81;;;11.71;nan
20942;BME280;10630;53.734;10.282;2022-11-13T05:56:42;102471.34;;;12.01;nan
20942;BME280;10630;53.734;10.282;2022-11-13T05:59:09;102472.81;;;11.94;nan
20942;BME280;10630;53.734;10.282;2022-11-13T06:01:37;102480.97;;;12.14;nan
20942;BME280;10630;53.734;10.282;2022-11-13T06:04:05;102479.25;;;12.13;nan
20942;BME280;10630;53.734;10.282;2022-11-13T06:06:33;102475.25;;;11.97;nan
20942;BME280;10630;53.734;10.282;2022-11-13T06:09:02;102481.56;;;12.27;nan
20942;BME280;10630;53.734;10.282;2022-11-13T06:11:29;102473.25;;;12.30;nan
20942;BME280;10630;53.734;10.282;2022-11-13T06:13:57;102472.41;;;12.20;nan
20942;BME280;10630;53.734;10.282;2022-11-13T06:16:25;102472.25;;;11.69;nan
20942;BME280;10630;53.734;10.282;2022-11-13T06:18:53;102464.16;;;11.71;nan
20942;BME280;10630;53.734;10.282;2022-11-13T06:21:21;102467.75;;;11.91;nan
20942;BME280;10630;53.734;10.282;2022-11-13T06:23:49;102459.09;;;12.40;nan
20942;BME280;10630;53.734;10.282;2022-11-13T06:26:24;102461.09;;;12.47;nan
20942;BME280;10630;53.734;10.282;2022-11-13T06:28:51;102456.25;;;12.82;nan
20942;BME280;10630;53.734;10.282;2022-11-13T06:31:19;102447.50;;;12.60;nan
20942;BME280;10630;53.734;10.282;2022-11-13T06:33:46;102457.69;;;12.26;nan
20942;BME280;10630;53.734;10.282;2022-11-13T06:36:14;102450.34;;;12.18;nan
20942;BME280;10630;53.734;10.282;2022-11-13T06:38:41;102439.63;;;12.69;nan
20942;BME280;10630;53.734;10.282;2022-11-13T06:41:08;102442.63;;;12.25;nan
20942;BME280;10630;53.734;10.282;2022-11-13T06:43:36;102446.84;;;11.96;nan
20942;BME280;10630;53.734;10.282;2022-11-13T06:46:08;102448.88;;;12.45;nan
20942;BME280;10630;53.734;10.282;2022-11-13T06:48:37;102444.84;;;12.60;nan
20942;BME280;10630;53.734;10.282;2022-11-13T06:51:05;102451.00;;;12.51;nan
20942;BME280;10630;53.734;10.282;2022-11-13T06:53:32;102442.38;;;11.97;nan
20942;BME280;10630;53.734;10.282;2022-11-13T06:55:59;102452.59;;;12.23;nan
20942;BME280;10630;53.734;10.282;2022-11-13T06:58:27;102450.72;;;11.61;nan
20942;BME280;10630;53.734;10.282;2022-11-13T07:00:54;102454.06;;;11.75;nan
20942;BME280;10630;53.734;10.282;2022-11-13T07:03:22;102460.13;;;12.08;nan
20942;BME280;10630;53.734;10.282;2022-11-13T07:05:49;102456.91;;;12.64;nan
20942;BME280;10630;53.734;10.282;2022-11-13T07:08:17;102461.94;;;12.48;nan
20942;BME280;10630;53.734;10.282;2022-11-13T07:10:52;102470.34;;;12.33;nan
20942;BME280;10630;53.734;10.282;2022-11-13T07:13:20;102477.63;;;12.82;nan
20942;BME280;10630;53.734;10.282;2022-11-13T07:15:47;102465.38;;;12.89;nan
20942;BME280;10630;53.734;10.282;2022-11-13T07:18:14;102462.28;;;13.23;nan
20942;BME280;10630;53.734;10.282;2022-11-13T07:20:48;102468.06;;;12.99;nan
20942;BME280;10630;53.734;10.282;2022-11-13T07:23:15;102467.09;;;13.00;nan
20942;BME280;10630;53.734;10.282;2022-11-13T07:25:45;102470.72;;;12.79;nan
20942;BME280;10630;53.734;10.282;2022-11-13T07:28:11;102479.09;;;12.55;nan
20942;BME280;10630;53.734;10.282;2022-11-13T07:30:39;102470.16;;;12.95;nan
20942;BME280;10630;53.734;10.282;2022-11-13T07:33:06;102473.53;;;13.27;nan
20942;BME280;10630;53.734;10.282;2022-11-13T07:35:34;102464.63;;;13.75;nan
20942;BME280;10630;53.734;10.282;2022-11-13T07:38:01;102456.94;;;13.53;nan
20942;BME280;10630;53.734;10.282;2022-11-13T07:40:28;102463.66;;;13.67;nan
20942;BME280;10630;53.734;10.282;2022-11-13T07:42:59;102463.81;;;13.55;nan
20942;BME280;10630;53.734;10.282;2022-11-13T07:45:27;102456.91;;;13.63;nan
20942;BME280;10630;53.734;10.282;2022-11-13T07:47:58;102456.50;;;14.05;nan
20942;BME280;10630;53.734;10.282;2022-11-13T07:50:28;102453.72;;;13.97;nan
20942;BME280;10630;53.734;10.282;2022-11-13T07:52:57;102458.91;;;13.51;nan
20942;BME280;10630;53.734;10.282;2022-11-13T07:55:27;102467.06;;;13.29;nan
20942;BME280;10630;53.734;10.282;2022-11-13T07:57:55;102465.41;;;13.96;nan
20942;BME280;10630;53.734;10.282;2022-11-13T08:00:23;102462.09;;;14.12;nan
20942;BME280;10630;53.734;10.282;2022-11-13T08:02:52;102467.41;;;13.84;nan
20942;BME280;10630;53.734;10.282;2022-11-13T08:05:20;102461.31;;;14.01;nan
20942;BME280;10630;53.734;10.282;2022-11-13T08:07:47;102467.97;;;14.15;nan
20942;BME280;10630;53.734;10.282;2022-11-13T08:10:17;102468.47;;;14.01;nan
20942;BME280;10630;53.734;10.282;2022-11-13T08:12:44;102480.09;;;14.19;nan
20942;BME280;10630;53.734;10.282;2022-11-13T08:15:11;102480.50;;;14.24;nan
20942;BME280;10630;53.734;10.282;2022-11-13T08:17:39;102479.03;;;14.58;nan
20942;BME280;10630;53.734;10.282;2022-11-13T08:20:06;102479.16;;;14.38;nan
20942;BME280;10630;53.734;10.282;2022-11-13T08:22:33;102481.00;;;14.66;nan
20942;BME280;10630;53.734;10.282;2022-11-13T08:25:02;102479.78;;;14.22;nan
20942;BME280;10630;53.734;10.282;2022-11-13T08:27:29;102476.13;;;14.23;nan
20942;BME280;10630;53.734;10.282;2022-11-13T08:29:56;102478.38;;;13.90;nan
20942;BME280;10630;53.734;10.282;2022-11-13T08:32:23;102470.03;;;13.93;nan
20942;BME280;10630;53.734;10.282;2022-11-13T08:34:51;102475.25;;;13.95;nan
20942;BME280;10630;53.734;10.282;2022-11-13T08:37:18;102480.72;;;13.66;nan
20942;BME280;10630;53.734;10.282;2022-11-13T08:39:45;102476.44;;;14.11;nan
20942;BME280;10630;53.734;10.282;2022-11-13T08:42:12;102478.78;;;13.96;nan
20942;BME280;10630;53.734;10.282;2022-11-13T08:44:39;102487.16;;;13.73;nan
20942;BME280;10630;53.734;10.282;2022-11-13T08:47:06;102479.56;;;14.16;nan
20942;BME280;10630;53.734;10.282;2022-11-13T08:49:33;102479.16;;;13.63;nan
20942;BME280;10630;53.734;10.282;2022-11-13T08:52:01;102478.19;;;13.54;nan
20942;BME280;10630;53.734;10.282;2022-11-13T08:54:28;102482.41;;;12.98;nan
20942;BME280;10630;53.734;10.282;2022-11-13T08:56:55;102488.31;;;13.70;nan
20942;BME280;10630;53.734;10.282;2022-11-13T08:59:27;102487.97;;;13.83;nan
20942;BME280;10630;53.734;10.282;2022-11-13T09:01:54;102487.63;;;14.06;nan
20942;BME280;10630;53.734;10.282;2022-11-13T09:04:24;102491.09;;;14.16;nan
20942;BME280;10630;53.734;10.282;2022-11-13T09:06:51;102485.94;;;14.33;nan
20942;BME280;10630;53.734;10.282;2022-11-13T09:09:18;102485.56;;;14.28;nan
20942;BME280;10630;53.734;10.282;2022-11-13T09:11:45;102488.53;;;13.87;nan
20942;BME280;10630;53.734;10.282;2022-11-13T09:14:14;102484.47;;;14.48;nan
20942;BME280;10630;53.734;10.282;2022-11-13T09:16:41;102485.41;;;13.91;nan
20942;BME280;10630;53.734;10.282;2022-11-13T09:19:11;102487.44;;;14.17;nan
20942;BME280;10630;53.734;10.282;2022-11-13T09:21:38;102490.59;;;14.03;nan
20942;BME280;10630;53.734;10.282;2022-11-13T09:24:05;102479.75;;;14.32;nan
20942;BME280;10630;53.734;10.282;2022-11-13T09:26:33;102482.06;;;14.45;nan
20942;BME280;10630;53.734;10.282;2022-11-13T09:29:01;102480.72;;;14.59;nan
20942;BME280;10630;53.734;10.282;2022-11-13T09:31:29;102474.22;;;13.68;nan
20942;BME280;10630;53.734;10.282;2022-11-13T09:33:56;102483.06;;;13.79;nan
20942;BME280;10630;53.734;10.282;2022-11-13T09:36:24;102477.63;;;13.31;nan
20942;BME280;10630;53.734;10.282;2022-11-13T09:38:52;102476.13;;;14.23;nan
20942;BME280;10630;53.734;10.282;2022-11-13T09:41:21;102469.06;;;14.32;nan
20942;BME280;10630;53.734;10.282;2022-11-13T09:43:54;102475.22;;;14.61;nan
20942;BME280;10630;53.734;10.282;2022-11-13T09:49:17;102474.50;;;14.40;nan
20942;BME280;10630;53.734;10.282;2022-11-13T09:51:51;102467.09;;;14.24;nan
20942;BME280;10630;53.734;10.282;2022-11-13T09:54:21;102469.16;;;13.55;nan
20942;BME280;10630;53.734;10.282;2022-11-13T09:56:59;102472.25;;;13.60;nan
20942;BME280;10630;53.734;10.282;2022-11-13T09:59:33;102473.72;;;13.92;nan
20942;BME280;10630;53.734;10.282;2022-11-13T10:04:33;102486.63;;;13.10;nan
20942;BME280;10630;53.734;10.282;2022-11-13T10:12:10;102473.94;;;13.22;nan
20942;BME280;10630;53.734;10.282;2022-11-13T10:14:43;102476.53;;;13.14;nan
20942;BME280;10630;53.734;10.282;2022-11-13T10:19:41;102474.00;;;13.42;nan
20942;BME280;10630;53.734;10.282;2022-11-13T10:22:48;102465.00;;;13.90;nan
20942;BME280;10630;53.734;10.282;2022-11-13T10:25:17;102473.97;;;13.03;nan
20942;BME280;10630;53.734;10.282;2022-11-13T10:27:48;102466.50;;;13.16;nan
20942;BME280;10630;53.734;10.282;2022-11-13T10:30:17;102477.88;;;13.38;nan
20942;BME280;10630;53.734;10.282;2022-11-13T10:32:44;102464.50;;;13.38;nan
20942;BME280;10630;53.734;10.282;2022-11-13T10:35:17;102469.03;;;13.67;nan
20942;BME280;10630;53.734;10.282;2022-11-13T10:43:17;102458.13;;;14.62;nan
20942;BME280;10630;53.734;10.282;2022-11-13T10:45:57;102450.63;;;14.93;nan
20942;BME280;10630;53.734;10.282;2022-11-13T10:48:28;102447.78;;;14.95;nan
20942;BME280;10630;53.734;10.282;2022-11-13T10:50:58;102455.50;;;14.34;nan
20942;BME280;10630;53.734;10.282;2022-11-13T10:53:32;102450.13;;;13.68;nan
20942;BME280;10630;53.734;10.282;2022-11-13T10:55:59;102444.78;;;14.80;nan
20942;BME280;10630;53.734;10.282;2022-11-13T10:58:28;102441.88;;;14.45;nan
20942;BME280;10630;53.734;10.282;2022-11-13T11:00:55;102441.31;;;14.51;nan
20942;BME280;10630;53.734;10.282;2022-11-13T11:03:24;102447.38;;;14.25;nan
20942;BME280;10630;53.734;10.282;2022-11-13T11:05:58;102440.94;;;13.81;nan
20942;BME280;10630;53.734;10.282;2022-11-13T11:08:32;102431.50;;;14.42;nan
20942;BME280;10630;53.734;10.282;2022-11-13T11:11:02;102435.09;;;14.51;nan
20942;BME280;10630;53.734;10.282;2022-11-13T11:13:51;102428.09;;;14.40;nan
20942;BME280;10630;53.734;10.282;2022-11-13T11:16:19;102425.06;;;14.35;nan
20942;BME280;10630;53.734;10.282;2022-11-13T11:18:56;102417.53;;;14.66;nan
20942;BME280;10630;53.734;10.282;2022-11-13T11:21:31;102416.56;;;14.39;nan
20942;BME280;10630;53.734;10.282;2022-11-13T11:30:00;102395.59;;;14.53;nan
20942;BME280;10630;53.734;10.282;2022-11-13T11:32:03;102391.84;;;14.64;nan
20942;BME280;10630;53.734;10.282;2022-11-13T11:34:45;102391.97;;;13.98;nan
20942;BME280;10630;53.734;10.282;2022-11-13T11:37:25;102393.47;;;14.75;nan
20942;BME280;10630;53.734;10.282;2022-11-13T11:42:32;102389.69;;;14.31;nan
20942;BME280;10630;53.734;10.282;2022-11-13T11:45:19;102387.59;;;13.69;nan
20942;BME280;10630;53.734;10.282;2022-11-13T11:47:48;102393.63;;;13.04;nan
20942;BME280;10630;53.734;10.282;2022-11-13T11:50:17;102380.72;;;13.67;nan
20942;BME280;10630;53.734;10.282;2022-11-13T11:55:21;102384.44;;;14.57;nan
20942;BME280;10630;53.734;10.282;2022-11-13T11:58:38;102381.47;;;15.23;nan
20942;BME280;10630;53.734;10.282;2022-11-13T12:00:48;102379.69;;;15.32;nan
20942;BME280;10630;53.734;10.282;2022-11-13T12:06:13;102371.22;;;14.74;nan
20942;BME280;10630;53.734;10.282;2022-11-13T12:14:05;102361.78;;;15.14;nan
20942;BME280;10630;53.734;10.282;2022-11-13T12:28:05;102348.25;;;15.16;nan
20942;BME280;10630;53.734;10.282;2022-11-13T12:30:55;102353.13;;;14.76;nan
20942;BME280;10630;53.734;10.282;2022-11-13T12:33:40;102352.03;;;15.05;nan
20942;BME280;10630;53.734;10.282;2022-11-13T12:36:11;102354.22;;;15.10;nan
20942;BME280;10630;53.734;10.282;2022-11-13T12:41:35;102346.06;;;14.57;nan
20942;BME280;10630;53.734;10.282;2022-11-13T12:44:24;102344.00;;;14.87;nan
20942;BME280;10630;53.734;10.282;2022-11-13T12:46:53;102342.00;;;15.15;nan
20942;BME280;10630;53.734;10.282;2022-11-13T12:51:55;102339.19;;;15.43;nan
20942;BME280;10630;53.734;10.282;2022-11-13T12:54:29;102324.13;;;15.50;nan
20942;BME280;10630;53.734;10.282;2022-11-13T12:57:04;102330.03;;;15.28;nan
20942;BME280;10630;53.734;10.282;2022-11-13T12:59:32;102325.81;;;15.25;nan
20942;BME280;10630;53.734;10.282;2022-11-13T13:04:40;102321.66;;;15.31;nan
20942;BME280;10630;53.734;10.282;2022-11-13T13:12:13;102311.19;;;15.46;nan
20942;BME280;10630;53.734;10.282;2022-11-13T13:15:05;102299.94;;;15.42;nan
20942;BME280;10630;53.734;10.282;2022-11-13T13:17:35;102298.56;;;13.77;nan
20942;BME280;10630;53.734;10.282;2022-11-13T13:20:04;102283.16;;;14.43;nan
20942;BME280;10630;53.734;10.282;2022-11-13T13:22:33;102283.31;;;14.23;nan
20942;BME280;10630;53.734;10.282;2022-11-13T13:25:06;102281.97;;;15.08;nan
20942;BME280;10630;53.734;10.282;2022-11-13T13:27:42;102277.38;;;14.56;nan
20942;BME280;10630;53.734;10.282;2022-11-13T13:30:17;102269.44;;;14.82;nan
20942;BME280;10630;53.734;10.282;2022-11-13T13:32:51;102271.78;;;14.85;nan
20942;BME280;10630;53.734;10.282;2022-11-13T13:35:25;102268.03;;;13.98;nan
20942;BME280;10630;53.734;10.282;2022-11-13T13:45:33;102271.91;;;14.57;nan
20942;BME280;10630;53.734;10.282;2022-11-13T13:48:02;102271.53;;;13.98;nan
20942;BME280;10630;53.734;10.282;2022-11-13T13:50:38;102274.09;;;14.80;nan
20942;BME280;10630;53.734;10.282;2022-11-13T13:53:06;102269.00;;;15.30;nan
20942;BME280;10630;53.734;10.282;2022-11-13T13:55:35;102268.44;;;15.52;nan
20942;BME280;10630;53.734;10.282;2022-11-13T13:58:07;102261.56;;;15.15;nan
20942;BME280;10630;53.734;10.282;2022-11-13T14:00:35;102268.41;;;15.10;nan
20942;BME280;10630;53.734;10.282;2022-11-13T14:03:19;102253.78;;;15.30;nan
20942;BME280;10630;53.734;10.282;2022-11-13T14:05:47;102262.38;;;15.42;nan
20942;BME280;10630;53.734;10.282;2022-11-13T14:08:18;102263.47;;;15.66;nan
20942;BME280;10630;53.734;10.282;2022-11-13T14:10:45;102262.13;;;15.70;nan
20942;BME280;10630;53.734;10.282;2022-11-13T14:13:12;102265.09;;;15.16;nan
20942;BME280;10630;53.734;10.282;2022-11-13T14:15:39;102258.91;;;14.89;nan
20942;BME280;10630;53.734;10.282;2022-11-13T14:18:14;102260.91;;;14.24;nan
20942;BME280;10630;53.734;10.282;2022-11-13T14:20:48;102258.88;;;15.15;nan
20942;BME280;10630;53.734;10.282;2022-11-13T14:23:18;102247.25;;;14.54;nan
20942;BME280;10630;53.734;10.282;2022-11-13T14:25:46;102246.41;;;15.32;nan
20942;BME280;10630;53.734;10.282;2022-11-13T14:28:18;102236.84;;;15.38;nan
20942;BME280;10630;53.734;10.282;2022-11-13T14:30:54;102231.28;;;15.74;nan